createdAt,value
2018-06-29T00:00:06.943Z,1.70
2018-06-29T00:02:35.920Z,1.50
2018-06-29T00:05:05.210Z,1.87
2018-06-29T00:07:33.935Z,1.37
2018-06-29T00:10:02.634Z,2.17
2018-06-29T00:12:31.267Z,1.60
2018-06-29T00:14:59.938Z,1.80
2018-06-29T00:17:28.576Z,1.27
2018-06-29T00:19:57.284Z,1.50
2018-06-29T00:22:25.939Z,1.40
2018-06-29T00:24:54.586Z,1.80
2018-06-29T00:27:23.246Z,1.57
2018-06-29T00:29:51.975Z,1.77
2018-06-29T00:32:20.577Z,1.80
2018-06-29T00:34:49.225Z,1.90
2018-06-29T00:37:17.875Z,1.80
2018-06-29T00:39:47.068Z,1.77
2018-06-29T00:42:15.766Z,1.80
2018-06-29T00:44:44.450Z,1.30
2018-06-29T00:47:13.102Z,1.80
2018-06-29T00:49:41.734Z,1.30
2018-06-29T00:52:10.486Z,1.80
2018-06-29T00:54:39.156Z,1.67
2018-06-29T00:57:07.874Z,1.50
2018-06-29T00:59:36.484Z,1.47
2018-06-29T01:02:05.258Z,1.77
2018-06-29T01:04:33.903Z,1.60
2018-06-29T01:07:02.590Z,1.93
2018-06-29T01:09:31.210Z,1.53
2018-06-29T01:11:59.920Z,1.80
2018-06-29T01:14:28.709Z,1.40
2018-06-29T01:16:57.089Z,1.43
2018-06-29T01:19:25.744Z,2.00
2018-06-29T01:21:54.501Z,1.67
2018-06-29T01:24:23.173Z,1.70
2018-06-29T01:26:51.883Z,1.57
2018-06-29T01:29:21.480Z,1.90
2018-06-29T01:31:50.148Z,1.57
2018-06-29T01:34:18.845Z,1.93
2018-06-29T01:36:47.600Z,1.80
2018-06-29T01:39:16.257Z,1.70
2018-06-29T01:41:44.860Z,1.90
2018-06-29T01:44:13.599Z,1.70
2018-06-29T01:46:42.517Z,1.40
2018-06-29T01:49:11.219Z,1.82
2018-06-29T01:51:39.884Z,1.93
2018-06-29T01:54:08.563Z,1.93
2018-06-29T01:56:37.326Z,1.55
2018-06-29T01:59:06.077Z,1.97
2018-06-29T02:01:34.711Z,2.00
2018-06-29T02:04:03.399Z,2.27
2018-06-29T02:06:32.013Z,1.50
2018-06-29T02:09:00.682Z,1.55
2018-06-29T02:11:29.354Z,1.72
2018-06-29T02:13:58.007Z,2.20
2018-06-29T02:16:26.654Z,2.08
2018-06-29T02:18:55.270Z,2.27
2018-06-29T02:21:24.054Z,2.50
2018-06-29T02:23:52.674Z,2.35
2018-06-29T02:26:21.270Z,2.10
2018-06-29T02:28:49.985Z,1.80
2018-06-29T02:31:18.619Z,2.27
2018-06-29T02:33:47.339Z,2.20
2018-06-29T02:36:16.016Z,2.20
2018-06-29T02:38:44.761Z,1.92
2018-06-29T02:41:13.398Z,2.60
2018-06-29T02:43:42.043Z,2.37
2018-06-29T02:46:10.702Z,2.47
2018-06-29T02:48:39.405Z,2.33
2018-06-29T02:51:08.166Z,2.50
2018-06-29T02:53:36.808Z,2.77
2018-06-29T02:56:05.571Z,2.40
2018-06-29T02:58:34.175Z,2.10
2018-06-29T03:01:03.300Z,2.90
2018-06-29T03:03:32.047Z,2.55
2018-06-29T03:06:00.644Z,2.77
2018-06-29T03:08:29.386Z,2.95
2018-06-29T03:10:58.074Z,3.20
2018-06-29T03:13:26.730Z,3.00
2018-06-29T03:15:55.524Z,3.25
2018-06-29T03:18:24.199Z,2.60
2018-06-29T03:20:52.817Z,3.27
2018-06-29T03:23:21.522Z,2.95
2018-06-29T03:25:50.234Z,3.20
2018-06-29T03:28:18.894Z,3.05
2018-06-29T03:30:47.536Z,3.55
2018-06-29T03:33:16.215Z,3.15
2018-06-29T03:35:44.871Z,3.52
2018-06-29T03:38:13.666Z,3.75
2018-06-29T03:40:42.505Z,2.95
2018-06-29T03:43:11.150Z,3.50
2018-06-29T03:45:39.867Z,3.20
2018-06-29T03:48:08.699Z,2.90
2018-06-29T03:50:37.370Z,4.00
2018-06-29T03:53:06.089Z,4.15
2018-06-29T03:55:34.781Z,3.22
2018-06-29T03:58:03.540Z,3.55
2018-06-29T04:00:31.840Z,4.12
2018-06-29T04:03:00.498Z,2.80
2018-06-29T04:05:29.111Z,3.20
2018-06-29T04:07:57.729Z,3.47
2018-06-29T04:10:26.380Z,3.45
2018-06-29T04:12:55.040Z,3.67
2018-06-29T04:15:23.793Z,3.85
2018-06-29T04:17:52.499Z,3.75
2018-06-29T04:20:21.175Z,3.55
2018-06-29T04:22:49.950Z,4.12
2018-06-29T04:25:18.721Z,3.50
2018-06-29T04:27:47.381Z,3.40
2018-06-29T04:30:16.151Z,3.45
2018-06-29T04:32:44.811Z,3.70
2018-06-29T04:35:13.463Z,3.97
2018-06-29T04:37:42.071Z,3.20
2018-06-29T04:40:10.798Z,3.13
2018-06-29T04:42:39.460Z,3.30
2018-06-29T04:45:08.086Z,3.30
2018-06-29T04:47:36.792Z,3.57
2018-06-29T04:50:05.713Z,3.50
2018-06-29T04:52:34.395Z,3.20
2018-06-29T04:55:03.163Z,3.10
2018-06-29T04:57:31.766Z,3.70
2018-06-29T05:00:00.491Z,3.03
2018-06-29T05:02:29.198Z,3.50
2018-06-29T05:04:57.990Z,4.30
2018-06-29T05:07:26.698Z,3.63
2018-06-29T05:09:55.331Z,3.10
2018-06-29T05:12:24.017Z,3.80
2018-06-29T05:14:52.748Z,4.23
2018-06-29T05:17:21.548Z,4.67
2018-06-29T05:19:50.319Z,3.80
2018-06-29T05:22:19.106Z,3.80
2018-06-29T05:24:47.866Z,5.00
2018-06-29T05:27:16.650Z,4.60
2018-06-29T05:29:45.265Z,4.23
2018-06-29T05:32:14.037Z,4.30
2018-06-29T05:34:42.759Z,3.90
2018-06-29T05:37:11.487Z,4.37
2018-06-29T05:39:40.401Z,4.83
2018-06-29T05:42:09.187Z,5.30
2018-06-29T05:44:38.060Z,3.83
2018-06-29T05:47:07.163Z,4.10
2018-06-29T05:49:36.091Z,4.80
2018-06-29T05:52:04.807Z,4.87
2018-06-29T05:54:33.591Z,4.07
2018-06-29T05:57:02.296Z,4.00
2018-06-29T05:59:30.955Z,4.53
2018-06-29T06:01:59.843Z,4.30
2018-06-29T06:04:28.543Z,3.93
2018-06-29T06:06:57.341Z,4.07
2018-06-29T06:09:26.196Z,3.70
2018-06-29T06:11:55.023Z,4.10
2018-06-29T06:14:23.705Z,4.13
2018-06-29T06:16:52.531Z,3.80
2018-06-29T06:19:32.355Z,5.00
2018-06-29T06:22:01.398Z,4.20
2018-06-29T06:24:30.667Z,4.23
2018-06-29T06:26:59.731Z,4.80
2018-06-29T06:29:28.361Z,4.57
2018-06-29T06:31:58.285Z,4.57
2018-06-29T06:34:27.670Z,3.77
2018-06-29T06:36:56.275Z,4.00
2018-06-29T06:39:25.041Z,4.10
2018-06-29T06:41:53.749Z,3.80
2018-06-29T06:44:22.467Z,4.00
2018-06-29T06:46:51.157Z,4.33
2018-06-29T06:49:20.166Z,4.43
2018-06-29T06:51:49.091Z,4.87
2018-06-29T06:54:17.808Z,3.73
2018-06-29T06:56:46.757Z,5.03
2018-06-29T06:59:15.248Z,4.90
2018-06-29T07:01:44.086Z,4.60
2018-06-29T07:04:12.794Z,4.97
2018-06-29T07:06:41.712Z,5.20
2018-06-29T07:09:12.792Z,4.13
2018-06-29T07:11:41.565Z,5.13
2018-06-29T07:14:10.839Z,4.53
2018-06-29T07:16:40.668Z,5.00
2018-06-29T07:19:09.550Z,5.13
2018-06-29T07:21:38.360Z,4.97
2018-06-29T07:24:07.050Z,4.27
2018-06-29T07:26:36.656Z,3.43
2018-06-29T07:29:05.763Z,4.53
2018-06-29T07:31:34.724Z,4.13
2018-06-29T07:34:03.557Z,5.50
2018-06-29T07:36:32.532Z,3.37
2018-06-29T07:39:01.259Z,3.80
2018-06-29T07:41:29.987Z,4.20
2018-06-29T07:43:58.666Z,4.37
2018-06-29T07:46:27.011Z,4.00
2018-06-29T07:48:55.788Z,3.30
2018-06-29T07:51:24.634Z,3.10
2018-06-29T07:53:53.333Z,3.13
2018-06-29T07:56:22.061Z,3.83
2018-06-29T07:58:50.815Z,2.77
2018-06-29T08:01:19.664Z,4.00
2018-06-29T08:03:48.591Z,2.97
2018-06-29T08:06:17.304Z,2.83
2018-06-29T08:08:46.097Z,2.70
2018-06-29T08:11:14.771Z,3.20
2018-06-29T08:13:43.614Z,2.20
2018-06-29T08:16:12.364Z,2.63
2018-06-29T08:18:41.103Z,2.33
2018-06-29T08:21:09.806Z,2.90
2018-06-29T08:23:38.529Z,2.20
2018-06-29T08:26:28.523Z,2.67
2018-06-29T08:28:57.278Z,2.10
2018-06-29T08:31:26.021Z,2.40
2018-06-29T08:33:54.780Z,2.30
2018-06-29T08:36:23.497Z,2.40
2018-06-29T08:38:52.215Z,1.90
2018-06-29T08:41:21.142Z,1.70
2018-06-29T08:43:49.974Z,1.43
2018-06-29T08:46:18.935Z,1.50
2018-06-29T08:48:47.722Z,2.07
2018-06-29T08:51:16.638Z,1.60
2018-06-29T08:53:45.420Z,1.60
2018-06-29T08:56:14.317Z,2.33
2018-06-29T08:58:43.031Z,1.50
2018-06-29T09:01:11.776Z,1.93
2018-06-29T09:03:40.993Z,2.77
2018-06-29T09:06:09.880Z,2.13
2018-06-29T09:08:39.383Z,1.63
2018-06-29T09:11:07.743Z,2.17
2018-06-29T09:13:36.717Z,2.47
2018-06-29T09:16:05.444Z,2.27
2018-06-29T09:18:34.154Z,2.30
2018-06-29T09:21:02.821Z,2.70
2018-06-29T09:23:31.620Z,2.20
2018-06-29T09:26:00.425Z,2.00
2018-06-29T09:28:29.272Z,1.80
2018-06-29T09:30:57.978Z,1.73
2018-06-29T09:33:26.765Z,2.43
2018-06-29T09:35:55.187Z,1.70
2018-06-29T09:38:24.020Z,1.80
2018-06-29T09:40:52.789Z,2.52
2018-06-29T09:43:21.598Z,2.50
2018-06-29T09:45:50.322Z,2.33
2018-06-29T09:48:19.153Z,2.13
2018-06-29T09:50:47.870Z,2.97
2018-06-29T09:53:16.281Z,1.70
2018-06-29T09:55:45.140Z,2.60
2018-06-29T09:58:13.998Z,1.73
2018-06-29T10:00:42.843Z,2.00
2018-06-29T10:03:11.697Z,1.80
2018-06-29T10:05:40.876Z,1.73
2018-06-29T10:08:09.659Z,2.03
2018-06-29T10:10:38.401Z,1.83
2018-06-29T10:13:07.181Z,1.43
2018-06-29T10:15:35.932Z,1.97
2018-06-29T10:18:04.744Z,1.67
2018-06-29T10:20:33.720Z,1.70
2018-06-29T10:23:02.506Z,17.17
2018-06-29T10:25:31.335Z,3.10
2018-06-29T10:28:00.609Z,2.40
2018-06-29T10:30:29.335Z,1.90
2018-06-29T10:32:58.152Z,2.50
2018-06-29T10:35:26.513Z,2.10
2018-06-29T10:37:55.474Z,1.60
2018-06-29T10:40:24.179Z,1.77
2018-06-29T10:42:53.373Z,1.83
2018-06-29T10:45:22.257Z,1.60
2018-06-29T10:47:50.973Z,1.70
2018-06-29T10:50:19.958Z,1.97
2018-06-29T10:52:48.746Z,1.30
2018-06-29T10:55:17.541Z,1.67
2018-06-29T10:57:46.562Z,1.80
2018-06-29T11:00:16.035Z,1.83
2018-06-29T11:02:44.876Z,2.23
2018-06-29T11:05:13.304Z,1.53
2018-06-29T11:07:42.157Z,1.60
2018-06-29T11:10:10.467Z,1.47
2018-06-29T11:12:39.103Z,1.57
2018-06-29T11:15:07.806Z,1.60
2018-06-29T11:17:36.641Z,1.53
2018-06-29T11:20:05.805Z,1.60
2018-06-29T11:22:34.766Z,1.67
2018-06-29T11:25:04.081Z,1.80
2018-06-29T11:27:33.615Z,1.43
2018-06-29T11:30:02.395Z,1.30
2018-06-29T11:32:31.218Z,1.50
2018-06-29T11:35:00.237Z,1.53
2018-06-29T11:37:29.174Z,1.60
2018-06-29T11:39:58.142Z,1.40
2018-06-29T11:42:26.924Z,1.70
2018-06-29T11:44:55.918Z,1.23
2018-06-29T11:47:24.342Z,1.73
2018-06-29T11:49:53.213Z,1.53
2018-06-29T11:52:21.958Z,1.33
2018-06-29T11:54:51.186Z,1.53
2018-06-29T11:57:19.827Z,1.30
2018-06-29T11:59:48.543Z,1.13
2018-06-29T12:02:17.310Z,1.33
2018-06-29T12:04:46.136Z,1.30
2018-06-29T12:07:14.911Z,2.27
2018-06-29T12:09:43.702Z,1.97
2018-06-29T12:12:12.509Z,1.90
2018-06-29T12:14:41.165Z,2.40
2018-06-29T12:17:09.964Z,1.70
2018-06-29T12:19:38.656Z,2.20
2018-06-29T12:22:07.433Z,1.90
2018-06-29T12:24:36.255Z,1.93
2018-06-29T12:27:05.042Z,1.90
2018-06-29T12:29:33.841Z,2.00
2018-06-29T12:32:02.893Z,1.83
2018-06-29T12:34:31.621Z,3.23
2018-06-29T12:37:00.338Z,1.67
2018-06-29T12:39:29.189Z,1.63
2018-06-29T12:41:59.357Z,1.90
2018-06-29T12:44:28.111Z,1.90
2018-06-29T12:46:57.057Z,1.33
2018-06-29T12:49:25.892Z,1.80
2018-06-29T12:51:55.601Z,1.57
2018-06-29T12:54:24.376Z,2.17
2018-06-29T12:56:53.211Z,1.70
2018-06-29T12:59:21.691Z,1.50
2018-06-29T13:01:50.430Z,2.00
2018-06-29T13:04:19.157Z,1.57
2018-06-29T13:06:48.260Z,1.40
2018-06-29T13:09:16.914Z,1.37
2018-06-29T13:11:45.791Z,1.53
2018-06-29T13:14:14.461Z,1.83
2018-06-29T13:16:43.211Z,1.67
2018-06-29T13:19:11.929Z,1.57
2018-06-29T13:21:40.569Z,1.53
2018-06-29T13:24:09.264Z,1.93
2018-06-29T13:26:38.179Z,1.80
2018-06-29T13:29:06.904Z,1.43
2018-06-29T13:31:35.674Z,1.20
2018-06-29T13:34:04.433Z,1.13
2018-06-29T13:36:32.837Z,1.43
2018-06-29T13:39:01.887Z,1.10
2018-06-29T13:41:30.713Z,1.73
2018-06-29T13:43:59.801Z,1.60
2018-06-29T13:46:28.609Z,1.03
2018-06-29T13:48:58.277Z,1.27
2018-06-29T13:51:27.148Z,1.23
2018-06-29T13:53:56.070Z,1.77
2018-06-29T13:56:25.018Z,1.27
2018-06-29T13:58:53.753Z,1.33
2018-06-29T14:01:24.110Z,1.30
2018-06-29T14:03:52.845Z,1.27
2018-06-29T14:06:21.529Z,1.10
2018-06-29T14:08:50.203Z,1.30
2018-06-29T14:11:19.043Z,1.20
2018-06-29T14:13:47.869Z,1.77
2018-06-29T14:16:16.708Z,1.30
2018-06-29T14:18:45.648Z,1.80
2018-06-29T14:21:14.405Z,1.70
2018-06-29T14:23:43.180Z,1.27
2018-06-29T14:26:11.941Z,1.20
2018-06-29T14:28:40.707Z,1.00
2018-06-29T14:31:09.432Z,1.53
2018-06-29T14:33:38.299Z,1.63
2018-06-29T14:36:07.133Z,1.50
2018-06-29T14:38:36.134Z,1.30
2018-06-29T14:41:04.487Z,1.50
2018-06-29T14:43:33.279Z,1.57
2018-06-29T14:46:02.017Z,1.10
2018-06-29T14:48:30.760Z,1.47
2018-06-29T14:50:59.543Z,1.27
2018-06-29T14:53:28.507Z,1.70
2018-06-29T14:55:57.324Z,1.43
2018-06-29T14:58:28.404Z,1.60
2018-06-29T15:00:57.162Z,1.53
2018-06-29T15:03:25.945Z,1.50
2018-06-29T15:05:54.705Z,2.10
2018-06-29T15:08:23.619Z,1.60
2018-06-29T15:10:52.485Z,1.47
2018-06-29T15:13:21.241Z,1.70
2018-06-29T15:15:49.976Z,1.77
2018-06-29T15:18:18.722Z,1.57
2018-06-29T15:20:47.564Z,1.70
2018-06-29T15:23:16.415Z,1.43
2018-06-29T15:25:45.109Z,1.80
2018-06-29T15:28:13.815Z,2.80
2018-06-29T15:30:43.121Z,1.90
2018-06-29T15:33:11.922Z,2.33
2018-06-29T15:35:41.047Z,1.93
2018-06-29T15:38:09.992Z,1.80
2018-06-29T15:40:38.803Z,2.00
2018-06-29T15:43:10.756Z,1.80
2018-06-29T15:45:39.449Z,1.77
2018-06-29T15:48:08.644Z,2.70
2018-06-29T15:50:37.389Z,3.10
2018-06-29T15:53:06.608Z,3.60
2018-06-29T15:55:35.339Z,4.17
2018-06-29T15:58:04.111Z,2.73
2018-06-29T16:00:32.768Z,3.43
2018-06-29T16:03:01.445Z,3.33
2018-06-29T16:05:30.107Z,2.70
2018-06-29T16:07:58.875Z,3.10
2018-06-29T16:10:27.745Z,3.10
2018-06-29T16:12:58.361Z,3.33
2018-06-29T16:15:26.932Z,2.67
2018-06-29T16:17:56.247Z,2.73
2018-06-29T16:20:25.095Z,3.10
2018-06-29T16:22:53.883Z,3.50
2018-06-29T16:25:22.686Z,3.70
2018-06-29T16:27:51.552Z,3.17
2018-06-29T16:30:20.389Z,2.83
2018-06-29T16:32:49.373Z,2.87
2018-06-29T16:35:18.298Z,2.47
2018-06-29T16:37:47.164Z,2.97
2018-06-29T16:40:15.972Z,3.50
2018-06-29T16:42:44.671Z,3.47
2018-06-29T16:45:13.531Z,3.60
2018-06-29T16:47:42.345Z,3.80
2018-06-29T16:50:11.218Z,4.50
2018-06-29T16:52:39.964Z,3.10
2018-06-29T16:55:08.648Z,4.10
2018-06-29T16:57:37.323Z,4.73
2018-06-29T17:00:07.117Z,4.40
2018-06-29T17:02:35.815Z,4.47
2018-06-29T17:05:04.600Z,3.50
2018-06-29T17:07:33.580Z,3.90
2018-06-29T17:10:02.215Z,3.83
2018-06-29T17:12:31.095Z,3.80
2018-06-29T17:14:59.897Z,3.50
2018-06-29T17:17:28.691Z,3.90
2018-06-29T17:19:57.463Z,3.57
2018-06-29T17:22:26.193Z,3.00
2018-06-29T17:24:54.949Z,3.10
2018-06-29T17:27:23.628Z,4.33
2018-06-29T17:29:52.527Z,4.57
2018-06-29T17:32:21.298Z,4.37
2018-06-29T17:34:49.935Z,4.07
2018-06-29T17:37:18.933Z,4.33
2018-06-29T17:39:47.794Z,6.50
2018-06-29T17:42:16.662Z,3.50
2018-06-29T17:44:45.422Z,4.00
2018-06-29T17:47:14.156Z,8.30
2018-06-29T17:49:42.972Z,3.43
2018-06-29T17:52:11.932Z,3.10
2018-06-29T17:54:40.637Z,3.90
2018-06-29T17:57:09.413Z,4.20
2018-06-29T17:59:38.245Z,4.20
2018-06-29T18:02:07.003Z,3.73
2018-06-29T18:04:35.726Z,5.30
2018-06-29T18:07:04.439Z,6.27
2018-06-29T18:09:33.231Z,4.30
2018-06-29T18:12:02.047Z,5.00
2018-06-29T18:14:31.181Z,4.57
2018-06-29T18:17:00.047Z,4.53
2018-06-29T18:19:28.749Z,4.90
2018-06-29T18:21:57.557Z,4.53
2018-06-29T18:24:25.888Z,5.67
2018-06-29T18:26:54.533Z,7.67
2018-06-29T18:29:23.494Z,7.00
2018-06-29T18:31:52.367Z,5.53
2018-06-29T18:34:21.062Z,5.03
2018-06-29T18:36:49.785Z,5.73
2018-06-29T18:39:18.437Z,5.27
2018-06-29T18:41:47.280Z,5.17
2018-06-29T18:44:16.101Z,5.13
2018-06-29T18:46:45.381Z,4.43
2018-06-29T18:49:14.064Z,4.60
2018-06-29T18:51:42.791Z,5.37
2018-06-29T18:54:11.501Z,5.40
2018-06-29T18:56:39.903Z,4.70
2018-06-29T18:59:08.652Z,5.30
2018-06-29T19:01:44.054Z,5.50
2018-06-29T19:04:12.697Z,4.97
2018-06-29T19:06:41.409Z,4.80
2018-06-29T19:09:11.016Z,5.63
2018-06-29T19:11:39.847Z,5.20
2018-06-29T19:14:08.649Z,5.70
2018-06-29T19:16:37.796Z,4.80
2018-06-29T19:19:06.488Z,6.77
2018-06-29T19:21:35.158Z,5.33
2018-06-29T19:24:04.247Z,6.10
2018-06-29T19:26:32.949Z,5.63
2018-06-29T19:29:01.709Z,5.10
2018-06-29T19:31:30.426Z,5.27
2018-06-29T19:33:59.114Z,5.50
2018-06-29T19:36:28.255Z,5.00
2018-06-29T19:38:57.034Z,4.83
2018-06-29T19:41:25.677Z,5.20
2018-06-29T19:43:54.430Z,5.73
2018-06-29T19:46:23.241Z,5.20
2018-06-29T19:48:52.470Z,4.63
2018-06-29T19:51:21.174Z,5.37
2018-06-29T19:53:49.854Z,5.60
2018-06-29T19:56:18.764Z,4.57
2018-06-29T19:58:47.566Z,4.57
2018-06-29T20:01:16.295Z,4.10
2018-06-29T20:03:45.409Z,4.63
2018-06-29T20:06:14.157Z,3.83
2018-06-29T20:08:42.872Z,3.90
2018-06-29T20:11:11.885Z,4.00
2018-06-29T20:13:41.646Z,4.27
2018-06-29T20:16:10.058Z,4.70
2018-06-29T20:18:39.379Z,4.53
2018-06-29T20:21:08.743Z,4.73
2018-06-29T20:23:37.430Z,4.67
2018-06-29T20:26:06.193Z,4.33
2018-06-29T20:28:34.982Z,4.47
2018-06-29T20:31:03.819Z,4.73
2018-06-29T20:33:32.644Z,4.70
2018-06-29T20:36:01.878Z,4.37
2018-06-29T20:38:30.556Z,4.30
2018-06-29T20:40:59.258Z,4.30
2018-06-29T20:43:27.899Z,4.10
2018-06-29T20:45:56.571Z,4.40
2018-06-29T20:48:25.355Z,4.67
2018-06-29T20:50:54.074Z,4.20
2018-06-29T20:53:22.837Z,3.83
2018-06-29T20:55:51.527Z,5.13
2018-06-29T20:58:20.167Z,4.90
2018-06-29T21:00:48.822Z,4.20
2018-06-29T21:03:17.499Z,5.23
2018-06-29T21:05:46.197Z,4.63
2018-06-29T21:08:14.571Z,3.63
2018-06-29T21:10:43.460Z,4.33
2018-06-29T21:13:12.931Z,4.33
2018-06-29T21:15:41.650Z,5.37
2018-06-29T21:18:10.538Z,5.00
2018-06-29T21:20:39.581Z,4.87
2018-06-29T21:23:09.298Z,5.00
2018-06-29T21:25:38.308Z,5.77
2018-06-29T21:28:07.029Z,4.80
2018-06-29T21:30:36.318Z,5.30
2018-06-29T21:33:05.012Z,5.03
2018-06-29T21:35:33.733Z,4.30
2018-06-29T21:38:03.052Z,5.40
2018-06-29T21:40:32.093Z,5.10
2018-06-29T21:43:00.813Z,4.83
2018-06-29T21:45:29.601Z,5.93
2018-06-29T21:47:58.302Z,6.10
2018-06-29T21:50:26.989Z,5.67
2018-06-29T21:52:55.685Z,5.80
2018-06-29T21:55:24.392Z,6.70
2018-06-29T21:57:53.131Z,6.33
2018-06-29T22:00:21.943Z,5.50
2018-06-29T22:02:50.703Z,6.13
2018-06-29T22:05:19.435Z,5.60
2018-06-29T22:07:48.281Z,5.97
2018-06-29T22:10:17.191Z,5.43
2018-06-29T22:12:46.014Z,7.10
2018-06-29T22:15:21.111Z,6.13
2018-06-29T22:17:49.820Z,7.87
2018-06-29T22:20:18.570Z,7.23
2018-06-29T22:22:47.290Z,5.93
2018-06-29T22:25:16.074Z,6.63
2018-06-29T22:27:44.871Z,6.57
2018-06-29T22:30:13.635Z,6.97
2018-06-29T22:32:42.664Z,7.17
2018-06-29T22:35:11.487Z,6.80
2018-06-29T22:37:40.253Z,8.00
2018-06-29T22:40:09.104Z,8.00
2018-06-29T22:42:37.523Z,7.53
2018-06-29T22:45:06.592Z,6.90
2018-06-29T22:47:35.340Z,7.27
2018-06-29T22:50:04.095Z,7.10
2018-06-29T22:52:32.942Z,7.80
2018-06-29T22:55:01.680Z,7.17
2018-06-29T22:57:30.436Z,7.50
2018-06-29T22:59:59.139Z,8.73
2018-06-29T23:02:28.084Z,8.40
2018-06-29T23:04:56.735Z,7.67
2018-06-29T23:07:25.503Z,10.43
2018-06-29T23:09:54.269Z,8.30
2018-06-29T23:12:22.906Z,8.87
2018-06-29T23:14:51.332Z,7.70
2018-06-29T23:17:20.000Z,8.00
2018-06-29T23:19:49.282Z,8.40
2018-06-29T23:22:17.902Z,9.20
2018-06-29T23:24:47.180Z,9.43
2018-06-29T23:27:16.462Z,9.13
2018-06-29T23:29:45.655Z,8.63
2018-06-29T23:32:14.283Z,10.10
2018-06-29T23:34:43.012Z,8.50
2018-06-29T23:37:11.760Z,10.50
2018-06-29T23:39:40.499Z,9.20
2018-06-29T23:42:09.268Z,10.53
2018-06-29T23:44:37.917Z,10.33
2018-06-29T23:47:06.705Z,10.40
2018-06-29T23:49:35.567Z,10.00
2018-06-29T23:52:04.214Z,11.03
2018-06-29T23:54:33.192Z,11.40
2018-06-29T23:57:01.877Z,10.33
2018-06-29T23:59:30.577Z,11.10
